createdAt,value
2023-05-06T00:00:44.925Z,98091.44
2023-05-06T00:03:13.899Z,98100.09
2023-05-06T00:05:42.966Z,98101.78
2023-05-06T00:08:11.255Z,98098.31
2023-05-06T00:10:39.454Z,98103.47
2023-05-06T00:13:08.338Z,98095.94
2023-05-06T00:15:37.793Z,98105.38
2023-05-06T00:18:06.355Z,98101.34
2023-05-06T00:20:34.807Z,98093.63
2023-05-06T00:23:02.892Z,98087.63
2023-05-06T00:25:31.152Z,98090.22
2023-05-06T00:27:59.333Z,98083.59
2023-05-06T00:30:27.681Z,98091.13
2023-05-06T00:32:57.376Z,98085.94
2023-05-06T00:35:25.613Z,98089.53
2023-05-06T00:37:58.704Z,98095.47
2023-05-06T00:40:26.886Z,98098.03
2023-05-06T00:42:54.950Z,98093.59
2023-05-06T00:45:23.133Z,98092.06
2023-05-06T00:47:51.427Z,98097.28
2023-05-06T00:50:21.130Z,98087.91
2023-05-06T00:52:49.476Z,98093.19
2023-05-06T00:55:18.016Z,98080.34
2023-05-06T00:57:46.759Z,98082.94
2023-05-06T01:00:15.916Z,98095.03
2023-05-06T01:02:47.602Z,98083.03
2023-05-06T01:05:17.202Z,98079.47
2023-05-06T01:07:57.423Z,98080.44
2023-05-06T01:10:31.118Z,98089.13
2023-05-06T01:13:07.462Z,98091.63
2023-05-06T01:15:39.590Z,98091.66
2023-05-06T01:18:12.316Z,98085.72
2023-05-06T01:20:42.383Z,98090.78
2023-05-06T01:23:13.615Z,98085.66
2023-05-06T01:25:42.325Z,98088.97
2023-05-06T01:28:11.912Z,98090.66
2023-05-06T01:30:47.995Z,98086.44
2023-05-06T01:33:20.667Z,98083.81
2023-05-06T01:36:00.555Z,98082.22
2023-05-06T01:38:43.824Z,98087.41
2023-05-06T01:41:16.500Z,98089.97
2023-05-06T01:43:46.588Z,98079.66
2023-05-06T01:46:19.569Z,98085.72
2023-05-06T01:48:51.273Z,98090.16
2023-05-06T01:51:19.554Z,98091.09
2023-05-06T01:53:49.108Z,98089.31
2023-05-06T01:56:18.814Z,98085.13
2023-05-06T01:58:47.059Z,98080.97
2023-05-06T02:01:15.515Z,98078.50
2023-05-06T02:03:43.754Z,98083.00
2023-05-06T02:06:12.117Z,98073.72
2023-05-06T02:08:41.557Z,98085.06
2023-05-06T02:11:11.030Z,98068.13
2023-05-06T02:13:39.072Z,98071.63
2023-05-06T02:16:09.060Z,98077.81
2023-05-06T02:18:37.338Z,98078.84
2023-05-06T02:21:06.204Z,98068.78
2023-05-06T02:23:34.533Z,98076.59
2023-05-06T02:26:03.127Z,98064.63
2023-05-06T02:28:32.938Z,98074.00
2023-05-06T02:31:01.085Z,98076.41
2023-05-06T02:33:29.609Z,98077.16
2023-05-06T02:35:58.715Z,98077.16
2023-05-06T02:38:27.377Z,98083.06
2023-05-06T02:40:55.551Z,98071.16
2023-05-06T02:43:23.901Z,98078.63
2023-05-06T02:45:53.981Z,98078.53
2023-05-06T02:48:22.115Z,98072.59
2023-05-06T02:50:50.222Z,98070.78
2023-05-06T02:53:18.439Z,98066.34
2023-05-06T02:55:46.649Z,98062.84
2023-05-06T02:58:15.226Z,98073.00
2023-05-06T03:00:43.325Z,98063.66
2023-05-06T03:03:13.264Z,98064.38
2023-05-06T03:05:41.839Z,98060.88
2023-05-06T03:08:10.400Z,98071.22
2023-05-06T03:10:38.479Z,98070.41
2023-05-06T03:13:07.021Z,98071.94
2023-05-06T03:15:35.294Z,98067.72
2023-05-06T03:18:03.409Z,98069.47
2023-05-06T03:20:33.025Z,98077.84
2023-05-06T03:23:01.723Z,98076.88
2023-05-06T03:25:29.812Z,98077.00
2023-05-06T03:27:57.987Z,98071.59
2023-05-06T03:30:26.333Z,98069.81
2023-05-06T03:32:55.971Z,98070.63
2023-05-06T03:35:24.770Z,98075.72
2023-05-06T03:37:54.401Z,98060.34
2023-05-06T03:40:22.505Z,98072.34
2023-05-06T03:42:51.104Z,98063.75
2023-05-06T03:45:19.591Z,98066.41
2023-05-06T03:47:48.354Z,98067.28
2023-05-06T03:50:17.163Z,98065.56
2023-05-06T03:52:45.816Z,98070.75
2023-05-06T03:55:15.539Z,98060.44
2023-05-06T03:57:43.853Z,98067.13
2023-05-06T04:00:13.445Z,98068.91
2023-05-06T04:02:42.764Z,98063.84
2023-05-06T04:05:11.660Z,98071.59
2023-05-06T04:07:40.102Z,98065.81
2023-05-06T04:10:09.898Z,98074.34
2023-05-06T04:12:40.109Z,98068.47
2023-05-06T04:15:09.713Z,98074.47
2023-05-06T04:17:38.443Z,98068.28
2023-05-06T04:20:08.681Z,98074.34
2023-05-06T04:22:37.123Z,98063.19
2023-05-06T04:25:06.210Z,98067.28
2023-05-06T04:27:34.595Z,98072.50
2023-05-06T04:30:04.106Z,98062.91
2023-05-06T04:32:32.363Z,98062.00
2023-05-06T04:35:00.812Z,98073.06
2023-05-06T04:37:31.037Z,98070.56
2023-05-06T04:39:59.394Z,98071.28
2023-05-06T04:42:27.635Z,98073.03
2023-05-06T04:44:55.939Z,98084.00
2023-05-06T04:47:25.746Z,98087.41
2023-05-06T04:49:54.455Z,98089.94
2023-05-06T04:52:22.731Z,98101.44
2023-05-06T04:54:50.989Z,98085.16
2023-05-06T04:57:19.431Z,98095.53
2023-05-06T04:59:47.568Z,98102.13
2023-05-06T05:02:15.981Z,98094.81
2023-05-06T05:04:45.740Z,98105.69
2023-05-06T05:07:14.011Z,98097.03
2023-05-06T05:09:43.230Z,98110.56
2023-05-06T05:12:11.333Z,98106.28
2023-05-06T05:14:40.076Z,98105.91
2023-05-06T05:17:08.333Z,98111.59
2023-05-06T05:19:36.488Z,98108.16
2023-05-06T05:22:05.989Z,98109.59
2023-05-06T05:24:34.493Z,98102.53
2023-05-06T05:27:03.984Z,98112.16
2023-05-06T05:29:32.699Z,98107.97
2023-05-06T05:32:01.000Z,98115.75
2023-05-06T05:34:29.644Z,98120.91
2023-05-06T05:36:58.333Z,98111.47
2023-05-06T05:39:28.056Z,98120.91
2023-05-06T05:41:56.154Z,98124.63
2023-05-06T05:44:24.434Z,98116.66
2023-05-06T05:46:52.760Z,98120.38
2023-05-06T05:49:21.087Z,98120.69
2023-05-06T05:51:50.697Z,98116.28
2023-05-06T05:54:18.960Z,98113.63
2023-05-06T05:56:48.496Z,98117.84
2023-05-06T05:59:16.937Z,98118.88
2023-05-06T06:01:45.042Z,98118.81
2023-05-06T06:04:13.195Z,98119.41
2023-05-06T06:06:41.469Z,98120.00
2023-05-06T06:09:10.596Z,98118.59
2023-05-06T06:11:38.884Z,98114.53
2023-05-06T06:14:08.505Z,98106.16
2023-05-06T06:16:38.954Z,98110.22
2023-05-06T06:19:07.739Z,98101.56
2023-05-06T06:21:36.466Z,98098.91
2023-05-06T06:24:05.229Z,98100.03
2023-05-06T06:26:33.814Z,98102.22
2023-05-06T06:29:02.593Z,98098.63
2023-05-06T06:31:35.062Z,98098.91
2023-05-06T06:34:06.476Z,98109.19
2023-05-06T06:36:34.927Z,98105.78
2023-05-06T06:39:03.272Z,98106.53
2023-05-06T06:41:31.668Z,98105.34
2023-05-06T06:44:00.354Z,98110.41
2023-05-06T06:46:29.177Z,98113.63
2023-05-06T06:48:59.023Z,98098.13
2023-05-06T06:51:27.223Z,98102.09
2023-05-06T06:53:56.386Z,98100.56
2023-05-06T06:56:25.152Z,98099.72
2023-05-06T06:58:53.630Z,98100.34
2023-05-06T07:01:22.299Z,98116.28
2023-05-06T07:03:50.806Z,98106.97
2023-05-06T07:06:20.445Z,98103.72
2023-05-06T07:08:49.802Z,98118.72
2023-05-06T07:11:18.048Z,98108.91
2023-05-06T07:13:46.176Z,98120.56
2023-05-06T07:16:14.996Z,98114.53
2023-05-06T07:18:43.692Z,98123.97
2023-05-06T07:21:12.464Z,98122.81
2023-05-06T07:23:41.978Z,98113.72
2023-05-06T07:26:10.277Z,98113.44
2023-05-06T07:28:38.550Z,98116.38
2023-05-06T07:31:06.857Z,98109.22
2023-05-06T07:33:35.256Z,98116.34
2023-05-06T07:36:03.678Z,98120.59
2023-05-06T07:38:32.597Z,98119.69
2023-05-06T07:41:02.111Z,98117.94
2023-05-06T07:43:30.480Z,98121.94
2023-05-06T07:46:02.990Z,98115.56
2023-05-06T07:48:31.914Z,98132.31
2023-05-06T07:51:01.401Z,98136.69
2023-05-06T07:53:29.605Z,98140.56
2023-05-06T07:56:02.587Z,98132.47
2023-05-06T07:58:32.922Z,98123.25
2023-05-06T08:01:01.409Z,98136.38
2023-05-06T08:03:29.622Z,98137.94
2023-05-06T08:05:58.577Z,98143.25
2023-05-06T08:08:28.291Z,98128.50
2023-05-06T08:10:57.210Z,98127.88
2023-05-06T08:13:25.992Z,98128.44
2023-05-06T08:15:56.103Z,98142.13
2023-05-06T08:18:24.384Z,98142.41
2023-05-06T08:20:52.985Z,98137.47
2023-05-06T08:23:22.167Z,98145.84
2023-05-06T08:25:51.114Z,98139.16
2023-05-06T08:28:19.387Z,98142.53
2023-05-06T08:30:48.685Z,98144.69
2023-05-06T08:33:20.257Z,98147.91
2023-05-06T08:35:49.855Z,98151.38
2023-05-06T08:38:18.380Z,98147.84
2023-05-06T08:40:46.675Z,98149.69
2023-05-06T08:43:16.270Z,98145.28
2023-05-06T08:45:44.855Z,98134.09
2023-05-06T08:48:13.837Z,98146.84
2023-05-06T08:50:44.812Z,98134.25
2023-05-06T08:53:14.194Z,98144.50
2023-05-06T08:55:43.299Z,98148.69
2023-05-06T08:58:15.853Z,98144.56
2023-05-06T09:00:44.764Z,98147.09
2023-05-06T09:03:13.871Z,98137.03
2023-05-06T09:05:44.387Z,98130.66
2023-05-06T09:08:13.100Z,98130.25
2023-05-06T09:10:45.772Z,98129.69
2023-05-06T09:13:15.749Z,98123.69
2023-05-06T09:15:47.888Z,98131.22
2023-05-06T09:18:17.493Z,98135.31
2023-05-06T09:20:48.877Z,98134.88
2023-05-06T09:23:18.549Z,98124.22
2023-05-06T09:25:49.870Z,98123.00
2023-05-06T09:28:18.077Z,98127.38
2023-05-06T09:30:47.822Z,98120.09
2023-05-06T09:33:16.672Z,98115.03
2023-05-06T09:35:47.008Z,98123.84
2023-05-06T09:38:15.796Z,98115.63
2023-05-06T09:40:44.395Z,98115.38
2023-05-06T09:43:15.699Z,98120.69
2023-05-06T09:45:45.082Z,98117.16
2023-05-06T09:48:13.491Z,98114.13
2023-05-06T09:50:42.691Z,98119.97
2023-05-06T09:53:14.804Z,98110.75
2023-05-06T09:55:44.317Z,98111.81
2023-05-06T09:58:14.946Z,98116.25
2023-05-06T10:00:43.841Z,98110.88
2023-05-06T10:03:15.485Z,98102.63
2023-05-06T10:05:45.128Z,98100.09
2023-05-06T10:08:18.755Z,98101.06
2023-05-06T10:10:48.415Z,98102.22
2023-05-06T10:13:17.614Z,98100.81
2023-05-06T10:15:48.268Z,98100.31
2023-05-06T10:18:19.056Z,98100.47
2023-05-06T10:20:48.867Z,98096.72
2023-05-06T10:23:26.243Z,98096.06
2023-05-06T10:25:58.492Z,98090.03
2023-05-06T10:28:30.904Z,98088.19
2023-05-06T10:31:01.036Z,98082.25
2023-05-06T10:33:30.625Z,98085.78
2023-05-06T10:36:11.314Z,98078.97
2023-05-06T10:38:43.826Z,98078.31
2023-05-06T10:41:12.725Z,98070.84
2023-05-06T10:43:42.670Z,98080.81
2023-05-06T10:46:12.657Z,98067.88
2023-05-06T10:49:02.075Z,98072.38
2023-05-06T10:51:30.537Z,98064.63
2023-05-06T10:54:05.781Z,98074.53
2023-05-06T10:56:35.263Z,98068.53
2023-05-06T10:59:08.170Z,98081.78
2023-05-06T11:01:37.624Z,98071.22
2023-05-06T11:04:14.271Z,98064.53
2023-05-06T11:06:44.906Z,98059.53
2023-05-06T11:09:24.201Z,98062.69
2023-05-06T11:12:02.137Z,98063.44
2023-05-06T11:14:32.043Z,98056.66
2023-05-06T11:17:01.835Z,98061.56
2023-05-06T11:19:31.348Z,98060.44
2023-05-06T11:22:01.385Z,98061.06
2023-05-06T11:24:32.707Z,98064.03
2023-05-06T11:27:01.850Z,98065.34
2023-05-06T11:29:30.848Z,98062.31
2023-05-06T11:31:59.698Z,98068.84
2023-05-06T11:34:29.820Z,98073.81
2023-05-06T11:37:02.813Z,98062.94
2023-05-06T11:39:39.990Z,98071.34
2023-05-06T11:42:09.638Z,98065.13
2023-05-06T11:44:39.837Z,98067.13
2023-05-06T11:47:09.733Z,98062.81
2023-05-06T11:49:39.302Z,98058.19
2023-05-06T11:52:07.990Z,98057.91
2023-05-06T11:54:40.095Z,98065.59
2023-05-06T11:57:09.330Z,98058.41
2023-05-06T11:59:38.701Z,98062.63
2023-05-06T12:02:09.056Z,98070.38
2023-05-06T12:04:41.853Z,98055.66
2023-05-06T12:07:11.915Z,98053.97
2023-05-06T12:09:44.176Z,98050.03
2023-05-06T12:12:14.058Z,98050.78
2023-05-06T12:14:42.771Z,98040.09
2023-05-06T12:17:11.481Z,98057.63
2023-05-06T12:19:40.669Z,98051.69
2023-05-06T12:22:22.875Z,98055.06
2023-05-06T12:24:53.302Z,98056.34
2023-05-06T12:27:33.105Z,98056.16
2023-05-06T12:30:04.380Z,98054.69
2023-05-06T12:32:33.441Z,98048.34
2023-05-06T12:35:07.552Z,98049.31
2023-05-06T12:37:36.201Z,98054.09
2023-05-06T12:40:08.097Z,98046.69
2023-05-06T12:42:36.863Z,98043.81
2023-05-06T12:45:17.798Z,98039.69
2023-05-06T12:47:56.700Z,98041.19
2023-05-06T12:50:36.724Z,98045.16
2023-05-06T12:53:06.207Z,98042.09
2023-05-06T12:55:38.190Z,98044.03
2023-05-06T12:58:17.205Z,98041.78
2023-05-06T13:00:48.810Z,98041.28
2023-05-06T13:03:17.625Z,98044.19
2023-05-06T13:05:46.566Z,98043.72
2023-05-06T13:08:15.106Z,98028.19
2023-05-06T13:10:45.966Z,98028.78
2023-05-06T13:13:14.989Z,98018.25
2023-05-06T13:15:43.471Z,98019.94
2023-05-06T13:18:11.953Z,98026.44
2023-05-06T13:20:41.634Z,98018.78
2023-05-06T13:23:10.518Z,98025.28
2023-05-06T13:25:51.688Z,98013.41
2023-05-06T13:28:28.766Z,98010.06
2023-05-06T13:30:56.999Z,98009.16
2023-05-06T13:33:25.513Z,98019.16
2023-05-06T13:35:54.445Z,98013.75
2023-05-06T13:38:23.142Z,98013.75
2023-05-06T13:40:53.256Z,98014.84
2023-05-06T13:43:22.456Z,98015.63
2023-05-06T13:45:52.400Z,98001.56
2023-05-06T13:48:21.099Z,98004.06
2023-05-06T13:50:49.377Z,98007.38
2023-05-06T13:53:18.028Z,98015.75
2023-05-06T13:55:47.335Z,98011.41
2023-05-06T13:58:17.302Z,98013.06
2023-05-06T14:00:45.950Z,98005.19
2023-05-06T14:03:15.625Z,97993.13
2023-05-06T14:05:44.043Z,97995.25
2023-05-06T14:08:12.268Z,97984.47
2023-05-06T14:10:41.047Z,97996.88
2023-05-06T14:13:10.503Z,97990.00
2023-05-06T14:15:39.252Z,97983.09
2023-05-06T14:18:08.582Z,97977.69
2023-05-06T14:20:38.675Z,97971.13
2023-05-06T14:23:09.323Z,97971.69
2023-05-06T14:25:37.969Z,97975.97
2023-05-06T14:28:06.797Z,97977.06
2023-05-06T14:30:37.625Z,97970.69
2023-05-06T14:33:07.072Z,97964.56
2023-05-06T14:35:36.048Z,97972.03
2023-05-06T14:38:06.401Z,97971.31
2023-05-06T14:40:37.168Z,97970.06
2023-05-06T14:43:06.420Z,97973.00
2023-05-06T14:45:35.838Z,97963.66
2023-05-06T14:48:05.413Z,97970.97
2023-05-06T14:50:33.983Z,97970.19
2023-05-06T14:53:03.704Z,97960.78
2023-05-06T14:55:34.737Z,97952.56
2023-05-06T14:58:03.879Z,97950.25
2023-05-06T15:00:32.471Z,97954.53
2023-05-06T15:03:01.333Z,97948.66
2023-05-06T15:05:30.200Z,97951.22
2023-05-06T15:07:59.154Z,97958.50
2023-05-06T15:10:27.607Z,97948.78
2023-05-06T15:12:57.872Z,97952.00
2023-05-06T15:15:26.536Z,97947.13
2023-05-06T15:17:56.194Z,97943.25
2023-05-06T15:20:25.166Z,97933.28
2023-05-06T15:22:53.581Z,97938.78
2023-05-06T15:25:34.437Z,97941.41
2023-05-06T15:28:07.277Z,97944.47
2023-05-06T15:30:35.896Z,97945.53
2023-05-06T15:33:05.036Z,97945.41
2023-05-06T15:35:39.182Z,97944.59
2023-05-06T15:38:07.885Z,97951.06
2023-05-06T15:40:36.849Z,97942.34
2023-05-06T15:43:08.841Z,97940.13
2023-05-06T15:45:37.755Z,97935.19
2023-05-06T15:48:06.829Z,97932.28
2023-05-06T15:50:37.527Z,97936.78
2023-05-06T15:53:06.164Z,97927.78
2023-05-06T15:55:43.734Z,97938.63
2023-05-06T15:58:14.592Z,97933.34
2023-05-06T16:00:43.270Z,97931.28
2023-05-06T16:03:12.502Z,97932.63
2023-05-06T16:05:42.744Z,97936.34
2023-05-06T16:08:11.310Z,97935.78
2023-05-06T16:10:39.810Z,97934.84
2023-05-06T16:13:08.477Z,97924.41
2023-05-06T16:15:38.541Z,97932.78
2023-05-06T16:18:07.327Z,97935.84
2023-05-06T16:20:39.063Z,97929.19
2023-05-06T16:23:21.053Z,97939.19
2023-05-06T16:25:50.415Z,97935.88
2023-05-06T16:28:19.282Z,97932.88
2023-05-06T16:30:49.698Z,97937.19
2023-05-06T16:33:18.498Z,97937.53
2023-05-06T16:35:47.531Z,97931.44
2023-05-06T16:38:16.155Z,97945.69
2023-05-06T16:40:51.967Z,97944.88
2023-05-06T16:43:21.389Z,97927.97
2023-05-06T16:45:51.617Z,97938.34
2023-05-06T16:48:21.128Z,97935.19
2023-05-06T16:50:50.085Z,97942.16
2023-05-06T16:53:18.772Z,97936.25
2023-05-06T16:55:51.699Z,97937.31
2023-05-06T16:58:20.665Z,97939.41
2023-05-06T17:00:53.434Z,97931.81
2023-05-06T17:03:21.955Z,97939.25
2023-05-06T17:05:52.710Z,97937.34
2023-05-06T17:08:22.994Z,97928.25
2023-05-06T17:10:53.045Z,97942.78
2023-05-06T17:13:21.712Z,97945.69
2023-05-06T17:15:52.003Z,97943.50
2023-05-06T17:18:20.455Z,97934.91
2023-05-06T17:20:55.942Z,97933.78
2023-05-06T17:23:25.757Z,97932.84
2023-05-06T17:25:54.243Z,97926.69
2023-05-06T17:28:22.690Z,97924.16
2023-05-06T17:30:53.010Z,97935.00
2023-05-06T17:33:21.993Z,97928.28
2023-05-06T17:35:50.944Z,97925.22
2023-05-06T17:38:19.528Z,97930.13
2023-05-06T17:40:48.584Z,97930.84
2023-05-06T17:43:17.264Z,97922.19
2023-05-06T17:45:47.829Z,97938.41
2023-05-06T17:48:18.489Z,97931.16
2023-05-06T17:50:46.980Z,97928.88
2023-05-06T17:53:15.703Z,97928.69
2023-05-06T17:55:44.257Z,97932.34
2023-05-06T17:58:13.024Z,97939.16
2023-05-06T18:00:41.774Z,97940.53
2023-05-06T18:03:10.441Z,97939.16
2023-05-06T18:05:41.279Z,97939.00
2023-05-06T18:08:10.318Z,97938.06
2023-05-06T18:10:41.214Z,97942.81
2023-05-06T18:13:11.986Z,97936.47
2023-05-06T18:15:40.947Z,97929.41
2023-05-06T18:18:10.249Z,97939.59
2023-05-06T18:20:41.149Z,97944.06
2023-05-06T18:23:10.608Z,97941.47
2023-05-06T18:25:39.545Z,97934.19
2023-05-06T18:28:08.799Z,97936.13
2023-05-06T18:30:37.513Z,97930.91
2023-05-06T18:33:06.685Z,97942.28
2023-05-06T18:35:35.500Z,97947.13
2023-05-06T18:38:05.958Z,97948.78
2023-05-06T18:40:35.726Z,97951.56
2023-05-06T18:43:04.744Z,97957.59
2023-05-06T18:45:33.141Z,97947.13
2023-05-06T18:48:01.532Z,97965.00
2023-05-06T18:50:30.086Z,97962.09
2023-05-06T18:52:58.788Z,97948.75
2023-05-06T18:55:29.610Z,97971.66
2023-05-06T18:57:59.290Z,97967.59
2023-05-06T19:00:29.144Z,97961.06
2023-05-06T19:02:58.125Z,97970.88
2023-05-06T19:05:27.537Z,97977.63
2023-05-06T19:07:57.511Z,97979.03
2023-05-06T19:10:27.120Z,97964.47
2023-05-06T19:12:57.226Z,97980.34
2023-05-06T19:15:25.755Z,97970.75
2023-05-06T19:17:54.532Z,97978.69
2023-05-06T19:20:23.500Z,97975.56
2023-05-06T19:22:52.798Z,97979.38
2023-05-06T19:25:22.730Z,97987.47
2023-05-06T19:27:52.998Z,97979.91
2023-05-06T19:30:24.038Z,97988.63
2023-05-06T19:32:52.490Z,97988.63
2023-05-06T19:35:22.653Z,97986.53
2023-05-06T19:37:51.322Z,97995.19
2023-05-06T19:40:20.092Z,97997.94
2023-05-06T19:42:49.191Z,98003.16
2023-05-06T19:45:19.696Z,98002.09
2023-05-06T19:47:50.640Z,97992.34
2023-05-06T19:50:19.884Z,98001.66
2023-05-06T19:52:48.415Z,97993.97
2023-05-06T19:55:18.459Z,98004.63
2023-05-06T19:57:47.159Z,98001.34
2023-05-06T20:00:18.468Z,98004.94
2023-05-06T20:02:51.168Z,97996.47
2023-05-06T20:05:19.722Z,98002.47
2023-05-06T20:07:49.190Z,97999.06
2023-05-06T20:10:18.263Z,97993.88
2023-05-06T20:12:47.961Z,97998.22
2023-05-06T20:15:16.968Z,97993.19
2023-05-06T20:17:45.356Z,97991.78
2023-05-06T20:20:16.009Z,97989.34
2023-05-06T20:22:44.866Z,98001.34
2023-05-06T20:25:16.299Z,98002.59
2023-05-06T20:27:45.208Z,98007.94
2023-05-06T20:30:13.751Z,98010.75
2023-05-06T20:32:42.341Z,97994.78
2023-05-06T20:35:16.841Z,98009.06
2023-05-06T20:37:45.794Z,98007.94
2023-05-06T20:40:16.365Z,97997.78
2023-05-06T20:42:45.135Z,97997.38
2023-05-06T20:45:13.640Z,98002.84
2023-05-06T20:47:42.566Z,98006.25
2023-05-06T20:50:17.027Z,98009.91
2023-05-06T20:52:49.064Z,98009.06
2023-05-06T20:55:20.799Z,97996.31
2023-05-06T20:57:49.981Z,98013.41
2023-05-06T21:00:19.278Z,98012.00
2023-05-06T21:02:48.075Z,98007.06
2023-05-06T21:05:16.786Z,98009.81
2023-05-06T21:07:47.956Z,98013.13
2023-05-06T21:10:16.921Z,98020.34
2023-05-06T21:12:49.222Z,98013.94
2023-05-06T21:15:18.085Z,98012.94
2023-05-06T21:17:47.244Z,98015.31
2023-05-06T21:20:16.874Z,98020.56
2023-05-06T21:22:47.901Z,98032.22
2023-05-06T21:25:17.706Z,98031.78
2023-05-06T21:27:46.982Z,98026.06
2023-05-06T21:30:16.567Z,98031.56
2023-05-06T21:32:45.248Z,98032.78
2023-05-06T21:35:14.260Z,98034.88
2023-05-06T21:37:43.647Z,98035.09
2023-05-06T21:40:15.304Z,98031.13
2023-05-06T21:42:44.109Z,98027.09
2023-05-06T21:45:13.995Z,98020.56
2023-05-06T21:47:42.987Z,98025.88
2023-05-06T21:50:12.140Z,98030.34
2023-05-06T21:52:41.330Z,98039.16
2023-05-06T21:55:11.727Z,98032.34
2023-05-06T21:57:43.503Z,98038.47
2023-05-06T22:00:14.353Z,98029.41
2023-05-06T22:02:43.240Z,98050.88
2023-05-06T22:05:12.435Z,98045.28
2023-05-06T22:07:42.026Z,98050.56
2023-05-06T22:10:11.346Z,98043.88
2023-05-06T22:12:41.742Z,98047.53
2023-05-06T22:15:12.188Z,98045.13
2023-05-06T22:17:41.385Z,98041.81
2023-05-06T22:20:12.436Z,98043.59
2023-05-06T22:22:41.491Z,98037.94
2023-05-06T22:25:11.242Z,98052.66
2023-05-06T22:27:41.730Z,98054.41
2023-05-06T22:30:11.830Z,98056.31
2023-05-06T22:32:40.905Z,98049.56
2023-05-06T22:35:10.439Z,98048.03
2023-05-06T22:37:39.105Z,98058.44
2023-05-06T22:40:09.687Z,98058.56
2023-05-06T22:42:38.873Z,98055.28
2023-05-06T22:45:12.439Z,98045.16
2023-05-06T22:47:41.404Z,98053.81
2023-05-06T22:50:10.555Z,98043.78
2023-05-06T22:52:39.117Z,98048.91
2023-05-06T22:55:09.902Z,98055.09
2023-05-06T22:57:38.785Z,98049.41
2023-05-06T23:00:12.703Z,98044.53
2023-05-06T23:02:41.406Z,98053.09
2023-05-06T23:05:10.808Z,98055.16
2023-05-06T23:07:39.809Z,98064.34
2023-05-06T23:10:09.685Z,98062.69
2023-05-06T23:12:38.492Z,98073.13
2023-05-06T23:15:11.773Z,98068.84
2023-05-06T23:17:41.029Z,98048.53
2023-05-06T23:20:13.882Z,98055.25
2023-05-06T23:22:42.372Z,98059.66
2023-05-06T23:25:12.362Z,98057.06
2023-05-06T23:27:42.665Z,98061.44
2023-05-06T23:30:14.382Z,98063.34
2023-05-06T23:32:43.210Z,98062.31
2023-05-06T23:35:12.233Z,98070.84
2023-05-06T23:37:41.061Z,98064.00
2023-05-06T23:40:13.382Z,98068.31
2023-05-06T23:42:42.327Z,98064.09
2023-05-06T23:45:13.094Z,98059.94
2023-05-06T23:47:42.198Z,98064.94
2023-05-06T23:50:11.366Z,98068.41
2023-05-06T23:52:40.713Z,98061.63
2023-05-06T23:55:10.522Z,98071.63
2023-05-06T23:57:40.093Z,98066.50
